Time;durP1;ratioP1;P1;durP2;ratioP2;P2;SDS_P1;SDS_P2;PMS_P1;PMS_P2;Temp;Humidity;BMP_temperature;BMP_pressure;BME280_temperature;BME280_humidity;BME280_pressure;Samples;Min_cycle;Max_cycle;Signal;HPM_P1;HPM_P2
2021/12/25 00:00:05;;;;;;;;;;;5.00;99.90;;;;;;5093929;28;20339;-75
2021/12/25 00:02:33;;;;;;;;;;;5.00;99.90;;;;;;5093433;28;19924;-74
2021/12/25 00:05:01;;;;;;;;;;;5.00;99.90;;;;;;5093685;28;19959;-74
2021/12/25 00:07:28;;;;;;;;;;;5.00;99.90;;;;;;5092430;28;19997;-74
2021/12/25 00:09:54;;;;;;;;;;;5.00;99.90;;;;;;5094122;28;20265;-74
2021/12/25 00:12:21;;;;;;;;;;;4.80;99.90;;;;;;5092648;28;20338;-74
2021/12/25 00:14:48;;;;;;;;;;;4.80;99.90;;;;;;5092357;28;19927;-76
2021/12/25 00:17:18;;;;;;;;;;;4.70;99.90;;;;;;5093201;28;19927;-76
2021/12/25 00:19:44;;;;;;;;;;;4.70;99.90;;;;;;5093076;28;19967;-76
2021/12/25 00:22:11;;;;;;;;;;;4.70;99.90;;;;;;5108179;27;20456;-76
2021/12/25 00:24:43;;;;;;;;;;;4.70;99.90;;;;;;5118981;27;20015;-76
2021/12/25 00:34:49;;;;;;;;;;;4.70;99.90;;;;;;5096658;28;19999;-75
2021/12/25 00:37:16;;;;;;;;;;;4.70;99.90;;;;;;5093657;28;19920;-76
2021/12/25 00:39:43;;;;;;;;;;;4.70;99.90;;;;;;5107544;28;19920;-75
2021/12/25 00:42:10;;;;;;;;;;;4.70;99.90;;;;;;5095727;28;19920;-75
2021/12/25 00:44:38;;;;;;;;;;;4.60;99.90;;;;;;5103204;28;19972;-75
2021/12/25 00:47:04;;;;;;;;;;;4.60;99.90;;;;;;5112094;28;19920;-75
2021/12/25 00:49:31;;;;;;;;;;;4.70;99.90;;;;;;5102740;28;20022;-75
2021/12/25 00:51:58;;;;;;;;;;;4.70;99.90;;;;;;5093987;28;19923;-75
2021/12/25 00:54:25;;;;;;;;;;;4.70;99.90;;;;;;5092328;28;20010;-75
2021/12/25 00:56:51;;;;;;;;;;;4.70;99.90;;;;;;5092762;28;20014;-76
2021/12/25 00:59:21;;;;;;;;;;;4.70;99.90;;;;;;5099977;28;20010;-76
2021/12/25 01:01:47;;;;;;;;;;;4.70;99.90;;;;;;5102502;27;20011;-75
2021/12/25 01:04:14;;;;;;;;;;;4.70;99.90;;;;;;5117860;27;19919;-76
2021/12/25 01:06:41;;;;;;;;;;;4.70;99.90;;;;;;5115553;27;19963;-75
2021/12/25 01:09:09;;;;;;;;;;;4.60;99.90;;;;;;5104094;28;19920;-76
2021/12/25 01:11:37;;;;;;;;;;;4.60;99.90;;;;;;5095996;28;19927;-75
2021/12/25 01:14:18;;;;;;;;;;;4.60;99.90;;;;;;5100376;27;20014;-75
2021/12/25 01:48:20;;;;;;;;;;;4.60;99.90;;;;;;5097340;28;19919;-75
2021/12/25 01:50:47;;;;;;;;;;;4.60;99.90;;;;;;5102860;28;20006;-76
2021/12/25 01:53:14;;;;;;;;;;;4.70;99.90;;;;;;5112593;27;20380;-76
2021/12/25 01:55:41;;;;;;;;;;;4.70;99.90;;;;;;5109145;27;22147;-75
2021/12/25 01:58:07;;;;;;;;;;;4.80;99.90;;;;;;5123145;27;19923;-75
2021/12/25 02:00:37;;;;;;;;;;;4.80;99.90;;;;;;5098807;28;19970;-75
2021/12/25 02:03:05;;;;;;;;;;;4.80;99.90;;;;;;5110622;27;19919;-76
2021/12/25 02:05:35;;;;;;;;;;;4.90;99.90;;;;;;5109258;28;19927;-76
2021/12/25 02:08:20;;;;;;;;;;;4.90;99.90;;;;;;5116654;28;20370;-75
2021/12/25 02:10:47;;;;;;;;;;;4.90;99.90;;;;;;5116766;28;19945;-75
2021/12/25 02:13:14;;;;;;;;;;;4.90;99.90;;;;;;5104993;28;19955;-75
2021/12/25 02:15:44;;;;;;;;;;;5.00;99.90;;;;;;5104216;28;19920;-76
2021/12/25 02:20:56;;;;;;;;;;;5.00;99.90;;;;;;5096272;28;19989;-76
2021/12/25 02:23:24;;;;;;;;;;;4.90;99.90;;;;;;5102813;28;19926;-76
2021/12/25 02:25:52;;;;;;;;;;;4.90;99.90;;;;;;5115330;28;19926;-76
2021/12/25 02:28:20;;;;;;;;;;;5.00;99.90;;;;;;5103397;28;19919;-77
2021/12/25 02:30:48;;;;;;;;;;;5.00;99.90;;;;;;5104539;27;20332;-76
2021/12/25 02:33:16;;;;;;;;;;;5.00;99.90;;;;;;5094880;28;20397;-76
2021/12/25 02:35:43;;;;;;;;;;;5.00;99.90;;;;;;5094721;28;20370;-77
2021/12/25 02:38:13;;;;;;;;;;;5.00;99.90;;;;;;5095714;28;20400;-77
2021/12/25 02:40:40;;;;;;;;;;;5.00;99.90;;;;;;5094775;28;19952;-76
2021/12/25 02:43:07;;;;;;;;;;;5.00;99.90;;;;;;5094960;28;19928;-77
2021/12/25 02:45:33;;;;;;;;;;;5.00;99.90;;;;;;5095448;28;19920;-76
2021/12/25 02:48:11;;;;;;;;;;;5.00;99.90;;;;;;5093844;28;19920;-77
2021/12/25 02:50:38;;;;;;;;;;;5.00;99.90;;;;;;5095552;28;19931;-77
2021/12/25 02:53:07;;;;;;;;;;;5.00;99.90;;;;;;5094285;28;19920;-76
2021/12/25 02:55:35;;;;;;;;;;;5.00;99.90;;;;;;5095076;28;20401;-77
2021/12/25 02:58:02;;;;;;;;;;;4.90;99.90;;;;;;5094788;28;20413;-77
2021/12/25 03:00:31;;;;;;;;;;;5.00;99.90;;;;;;5115333;28;20377;-77
2021/12/25 03:03:03;;;;;;;;;;;5.00;99.90;;;;;;5102412;28;20297;-77
2021/12/25 03:05:30;;;;;;;;;;;5.00;99.90;;;;;;5095982;28;19963;-77
2021/12/25 03:07:57;;;;;;;;;;;4.90;99.90;;;;;;5112728;28;19949;-77
2021/12/25 03:10:24;;;;;;;;;;;4.90;99.90;;;;;;5100293;28;19920;-77
2021/12/25 03:13:05;;;;;;;;;;;4.90;99.90;;;;;;5094314;28;19920;-77
2021/12/25 03:15:45;;;;;;;;;;;4.90;99.90;;;;;;5115057;27;20000;-78
2021/12/25 03:18:15;;;;;;;;;;;4.90;99.90;;;;;;5118957;27;19919;-77
2021/12/25 03:20:44;;;;;;;;;;;4.90;99.90;;;;;;5116618;27;19930;-77
2021/12/25 03:23:12;;;;;;;;;;;4.90;99.90;;;;;;5119513;27;19954;-79
2021/12/25 03:25:40;;;;;;;;;;;4.90;99.90;;;;;;5105532;28;19926;-78
2021/12/25 03:28:07;;;;;;;;;;;4.90;99.90;;;;;;5101140;28;19920;-78
2021/12/25 03:30:37;;;;;;;;;;;4.90;99.90;;;;;;5107796;28;20333;-78
2021/12/25 03:33:05;;;;;;;;;;;4.90;99.90;;;;;;5097755;28;19935;-78
2021/12/25 03:35:34;;;;;;;;;;;4.90;99.90;;;;;;5098308;28;20340;-78
2021/12/25 03:38:02;;;;;;;;;;;4.90;99.90;;;;;;5110204;28;19926;-78
2021/12/25 03:40:28;;;;;;;;;;;4.90;99.90;;;;;;5098074;28;19920;-78
2021/12/25 03:42:55;;;;;;;;;;;4.90;99.90;;;;;;5094261;28;19927;-79
2021/12/25 03:45:22;;;;;;;;;;;4.90;99.90;;;;;;5094706;28;20369;-80
2021/12/25 03:47:52;;;;;;;;;;;4.90;99.90;;;;;;5092828;28;20034;-79
2021/12/25 03:58:30;;;;;;;;;;;5.00;99.90;;;;;;5099381;28;19955;-81
2021/12/25 04:01:03;;;;;;;;;;;5.00;99.90;;;;;;5093515;28;20361;-81
2021/12/25 04:04:00;;;;;;;;;;;5.10;99.90;;;;;;5106056;28;19963;-81
2021/12/25 04:06:27;;;;;;;;;;;5.00;99.90;;;;;;5100122;28;19924;-81
2021/12/25 04:08:57;;;;;;;;;;;5.00;99.90;;;;;;5093237;28;20301;-80
2021/12/25 04:11:29;;;;;;;;;;;5.10;99.90;;;;;;5102763;28;20296;-81
2021/12/25 04:13:56;;;;;;;;;;;5.10;99.90;;;;;;5098288;28;19965;-80
2021/12/25 04:16:23;;;;;;;;;;;5.10;99.90;;;;;;5105989;28;19920;-81
2021/12/25 04:18:50;;;;;;;;;;;5.00;99.90;;;;;;5105463;27;19942;-80
2021/12/25 04:21:16;;;;;;;;;;;5.10;99.90;;;;;;5121208;27;20321;-80
2021/12/25 04:23:44;;;;;;;;;;;5.10;99.90;;;;;;5108246;28;19977;-80
2021/12/25 04:26:17;;;;;;;;;;;5.10;99.90;;;;;;5108877;28;19919;-79
2021/12/25 04:28:51;;;;;;;;;;;5.10;99.90;;;;;;5092307;28;20011;-79
2021/12/25 04:48:24;;;;;;;;;;;5.30;99.90;;;;;;5093042;28;19920;-79
2021/12/25 05:01:56;;;;;;;;;;;5.40;99.90;;;;;;5092818;28;19967;-78
2021/12/25 05:04:29;;;;;;;;;;;5.40;99.90;;;;;;5099259;28;19920;-78
2021/12/25 05:06:59;;;;;;;;;;;5.40;99.90;;;;;;5111772;28;20040;-77
2021/12/25 05:09:25;;;;;;;;;;;5.40;99.90;;;;;;5093275;28;19920;-77
2021/12/25 05:11:52;;;;;;;;;;;5.40;99.90;;;;;;5092704;28;20014;-77
2021/12/25 05:14:19;;;;;;;;;;;5.40;99.90;;;;;;5106406;28;19923;-76
2021/12/25 05:16:45;;;;;;;;;;;5.40;99.90;;;;;;5102671;28;19962;-76
2021/12/25 05:19:12;;;;;;;;;;;5.40;99.90;;;;;;5092759;28;19923;-77
2021/12/25 05:21:39;;;;;;;;;;;5.40;99.90;;;;;;5092078;28;20014;-76
2021/12/25 05:24:06;;;;;;;;;;;5.40;99.90;;;;;;5093867;28;19963;-76
2021/12/25 05:26:33;;;;;;;;;;;5.40;99.90;;;;;;5095877;28;19920;-77
2021/12/25 05:29:01;;;;;;;;;;;5.40;99.90;;;;;;5094473;28;19920;-76
2021/12/25 05:31:31;;;;;;;;;;;5.40;99.90;;;;;;5102648;28;20339;-76
2021/12/25 05:33:59;;;;;;;;;;;5.40;99.90;;;;;;5096985;28;20742;-77
2021/12/25 05:36:27;;;;;;;;;;;5.40;99.90;;;;;;5103350;28;19950;-76
2021/12/25 05:38:59;;;;;;;;;;;5.40;99.90;;;;;;5122510;27;19963;-76
2021/12/25 05:41:27;;;;;;;;;;;5.30;99.90;;;;;;5102308;28;20373;-77
2021/12/25 05:43:54;;;;;;;;;;;5.30;99.90;;;;;;5101393;27;19928;-76
2021/12/25 05:46:22;;;;;;;;;;;5.30;99.90;;;;;;5097826;28;20421;-74
2021/12/25 05:48:50;;;;;;;;;;;5.20;99.90;;;;;;5093207;28;20020;-74
2021/12/25 05:51:17;;;;;;;;;;;5.20;99.90;;;;;;5086417;28;20334;-75
2021/12/25 05:53:44;;;;;;;;;;;5.10;99.90;;;;;;5102607;27;19942;-75
2021/12/25 05:56:11;;;;;;;;;;;5.10;99.90;;;;;;5112398;27;20007;-75
2021/12/25 05:58:38;;;;;;;;;;;5.00;99.90;;;;;;5101729;27;20664;-75
2021/12/25 06:01:05;;;;;;;;;;;4.90;99.90;;;;;;5094290;28;19920;-75
2021/12/25 06:03:33;;;;;;;;;;;4.90;99.90;;;;;;5101816;28;19965;-76
2021/12/25 06:05:59;;;;;;;;;;;4.90;99.90;;;;;;5101824;28;19923;-75
2021/12/25 06:08:27;;;;;;;;;;;4.80;99.90;;;;;;5094436;28;19920;-75
2021/12/25 06:10:53;;;;;;;;;;;4.80;99.90;;;;;;5093646;28;20003;-75
2021/12/25 06:13:22;;;;;;;;;;;4.70;99.90;;;;;;5102887;28;19920;-75
2021/12/25 06:15:50;;;;;;;;;;;4.70;99.90;;;;;;5103873;28;19919;-76
2021/12/25 06:18:17;;;;;;;;;;;4.60;99.90;;;;;;5093509;28;20382;-76
2021/12/25 06:20:44;;;;;;;;;;;4.60;99.90;;;;;;5094020;28;20307;-75
2021/12/25 06:23:10;;;;;;;;;;;4.60;99.90;;;;;;5094907;28;19919;-75
2021/12/25 06:25:37;;;;;;;;;;;4.50;99.90;;;;;;5098888;28;19924;-76
2021/12/25 06:28:04;;;;;;;;;;;4.50;99.90;;;;;;5092994;28;19926;-75
2021/12/25 06:30:31;;;;;;;;;;;4.50;99.90;;;;;;5107207;28;20289;-75
2021/12/25 06:33:00;;;;;;;;;;;4.50;99.90;;;;;;5103413;28;20010;-75
2021/12/25 06:35:28;;;;;;;;;;;4.40;99.90;;;;;;5104481;28;20414;-75
2021/12/25 06:37:54;;;;;;;;;;;4.40;99.90;;;;;;5111248;28;19972;-75
2021/12/25 06:40:27;;;;;;;;;;;4.40;99.90;;;;;;5095295;28;20006;-75
2021/12/25 06:42:54;;;;;;;;;;;4.30;99.90;;;;;;5093071;28;19934;-74
2021/12/25 06:45:21;;;;;;;;;;;4.30;99.90;;;;;;5096718;28;19920;-74
2021/12/25 06:47:50;;;;;;;;;;;4.30;99.90;;;;;;5110582;28;19962;-76
2021/12/25 06:50:21;;;;;;;;;;;4.30;99.90;;;;;;5107020;28;19930;-75
2021/12/25 06:52:48;;;;;;;;;;;4.30;99.90;;;;;;5131746;27;19955;-75
2021/12/25 06:55:15;;;;;;;;;;;4.20;99.90;;;;;;5111818;28;19999;-75
2021/12/25 06:57:52;;;;;;;;;;;4.20;99.90;;;;;;5095081;28;20564;-75
2021/12/25 07:00:20;;;;;;;;;;;4.10;99.90;;;;;;5099876;28;20705;-74
2021/12/25 07:02:47;;;;;;;;;;;4.10;99.90;;;;;;5103760;28;19924;-74
2021/12/25 07:05:13;;;;;;;;;;;4.00;99.90;;;;;;5094278;28;20672;-75
2021/12/25 07:07:40;;;;;;;;;;;3.90;99.90;;;;;;5095809;27;19926;-74
2021/12/25 07:10:07;;;;;;;;;;;3.80;99.90;;;;;;5094288;27;19924;-74
2021/12/25 07:12:37;;;;;;;;;;;3.80;99.90;;;;;;5105237;27;21406;-74
2021/12/25 07:15:05;;;;;;;;;;;3.70;99.90;;;;;;5101974;27;19926;-74
2021/12/25 07:17:32;;;;;;;;;;;3.60;99.90;;;;;;5098473;27;19931;-74
2021/12/25 07:19:59;;;;;;;;;;;3.60;99.90;;;;;;5093224;27;19924;-74
2021/12/25 07:22:25;;;;;;;;;;;3.50;99.90;;;;;;5098748;27;19963;-75
2021/12/25 07:24:52;;;;;;;;;;;3.40;99.90;;;;;;5101103;28;19924;-75
2021/12/25 07:27:18;;;;;;;;;;;3.40;99.90;;;;;;5098050;28;19919;-76
2021/12/25 07:29:45;;;;;;;;;;;3.40;99.90;;;;;;5099741;28;19919;-75
2021/12/25 07:32:12;;;;;;;;;;;3.30;99.90;;;;;;5107816;27;19919;-75
2021/12/25 07:34:40;;;;;;;;;;;3.30;99.90;;;;;;5098387;28;20568;-75
2021/12/25 07:37:06;;;;;;;;;;;3.30;99.90;;;;;;5097111;28;20366;-75
2021/12/25 07:39:33;;;;;;;;;;;3.30;99.90;;;;;;5114364;27;19930;-75
2021/12/25 07:42:00;;;;;;;;;;;3.20;99.90;;;;;;5103143;28;19920;-75
2021/12/25 07:44:28;;;;;;;;;;;3.30;99.90;;;;;;5103185;27;19926;-74
2021/12/25 07:46:55;;;;;;;;;;;3.30;99.90;;;;;;5097781;28;21447;-75
2021/12/25 07:49:22;;;;;;;;;;;3.20;99.90;;;;;;5110929;27;20222;-75
2021/12/25 07:51:49;;;;;;;;;;;3.20;99.90;;;;;;5117732;27;19923;-76
2021/12/25 07:54:16;;;;;;;;;;;3.20;99.90;;;;;;5104726;28;20010;-75
2021/12/25 07:56:42;;;;;;;;;;;3.10;99.90;;;;;;5089612;28;19926;-75
2021/12/25 07:59:09;;;;;;;;;;;3.10;99.90;;;;;;5107630;27;19920;-76
2021/12/25 08:01:36;;;;;;;;;;;3.10;99.90;;;;;;5094013;28;19920;-75
2021/12/25 08:04:03;;;;;;;;;;;3.10;99.90;;;;;;5098084;27;19965;-75
2021/12/25 08:06:30;;;;;;;;;;;3.10;99.90;;;;;;5095389;28;19920;-75
2021/12/25 08:09:00;;;;;;;;;;;3.10;99.90;;;;;;5107403;27;20412;-75
2021/12/25 08:11:27;;;;;;;;;;;3.10;99.90;;;;;;5101781;28;19919;-75
2021/12/25 08:13:54;;;;;;;;;;;3.00;99.90;;;;;;5099997;27;19927;-75
2021/12/25 08:16:21;;;;;;;;;;;2.90;99.90;;;;;;5115940;27;20011;-76
2021/12/25 08:18:48;;;;;;;;;;;2.90;99.90;;;;;;5089905;28;19975;-76
2021/12/25 08:21:15;;;;;;;;;;;2.80;99.90;;;;;;5101163;28;19920;-76
2021/12/25 08:23:41;;;;;;;;;;;2.80;99.90;;;;;;5116368;27;19923;-76
2021/12/25 08:26:08;;;;;;;;;;;2.80;99.90;;;;;;5096762;28;20014;-76
2021/12/25 08:28:35;;;;;;;;;;;2.70;99.90;;;;;;5115507;27;19949;-76
2021/12/25 08:31:03;;;;;;;;;;;2.80;99.90;;;;;;5102532;28;19920;-75
2021/12/25 08:33:29;;;;;;;;;;;2.80;99.90;;;;;;5102998;28;19920;-76
2021/12/25 08:35:58;;;;;;;;;;;2.70;99.90;;;;;;5101430;28;21355;-75
2021/12/25 08:38:25;;;;;;;;;;;2.80;99.90;;;;;;5092430;28;19924;-76
2021/12/25 08:40:54;;;;;;;;;;;2.80;99.90;;;;;;5097718;28;20332;-75
2021/12/25 08:43:24;;;;;;;;;;;2.80;99.90;;;;;;5112654;27;19923;-76
2021/12/25 08:46:01;;;;;;;;;;;2.70;99.90;;;;;;5104211;27;19931;-76
2021/12/25 08:48:29;;;;;;;;;;;2.70;99.90;;;;;;5095483;28;20569;-76
2021/12/25 08:50:57;;;;;;;;;;;2.60;99.90;;;;;;5095521;28;20015;-76
2021/12/25 08:53:25;;;;;;;;;;;2.50;99.90;;;;;;5109568;27;19924;-75
2021/12/25 08:55:55;;;;;;;;;;;2.50;99.90;;;;;;5095971;28;20011;-76
2021/12/25 08:58:23;;;;;;;;;;;2.50;99.90;;;;;;5091434;28;19930;-75
2021/12/25 09:00:57;;;;;;;;;;;2.40;99.90;;;;;;5107433;27;20804;-76
2021/12/25 09:03:25;;;;;;;;;;;2.40;99.90;;;;;;5098717;28;19932;-75
2021/12/25 09:05:54;;;;;;;;;;;2.40;99.90;;;;;;5085301;28;20375;-75
2021/12/25 09:08:20;;;;;;;;;;;2.40;99.90;;;;;;5107510;28;20021;-75
2021/12/25 09:10:47;;;;;;;;;;;2.40;99.90;;;;;;5103469;28;19946;-75
2021/12/25 09:13:16;;;;;;;;;;;2.40;99.90;;;;;;5107415;27;19994;-76
2021/12/25 09:15:52;;;;;;;;;;;2.40;99.90;;;;;;5104168;28;19963;-76
2021/12/25 09:18:26;;;;;;;;;;;2.40;99.90;;;;;;5093726;28;19924;-76
2021/12/25 09:20:56;;;;;;;;;;;2.50;99.90;;;;;;5102935;28;19926;-76
2021/12/25 09:23:24;;;;;;;;;;;2.50;99.90;;;;;;5099581;28;19967;-76
2021/12/25 09:25:50;;;;;;;;;;;2.50;99.90;;;;;;5117182;27;19926;-76
2021/12/25 09:28:18;;;;;;;;;;;2.50;99.90;;;;;;5104723;28;20306;-77
2021/12/25 09:30:45;;;;;;;;;;;2.50;99.90;;;;;;5095909;28;19920;-76
2021/12/25 09:33:12;;;;;;;;;;;2.50;99.90;;;;;;5094269;28;19920;-76
2021/12/25 09:35:38;;;;;;;;;;;2.50;99.90;;;;;;5102661;28;19945;-76
2021/12/25 09:38:05;;;;;;;;;;;2.40;99.90;;;;;;5092039;28;20010;-77
2021/12/25 09:40:32;;;;;;;;;;;2.40;99.90;;;;;;5101248;28;19920;-77
2021/12/25 09:42:58;;;;;;;;;;;2.40;99.90;;;;;;5101418;28;20568;-76
2021/12/25 09:45:25;;;;;;;;;;;2.40;99.90;;;;;;5100296;28;19919;-76
2021/12/25 09:47:52;;;;;;;;;;;2.30;99.90;;;;;;5097609;27;19998;-76
2021/12/25 09:50:21;;;;;;;;;;;2.30;99.90;;;;;;5099486;27;20389;-75
2021/12/25 09:52:48;;;;;;;;;;;2.30;99.90;;;;;;5092762;28;19946;-75
2021/12/25 09:55:15;;;;;;;;;;;2.30;99.90;;;;;;5103343;28;19943;-75
2021/12/25 09:57:42;;;;;;;;;;;2.30;99.90;;;;;;5091146;28;20538;-75
2021/12/25 10:00:20;;;;;;;;;;;2.30;99.90;;;;;;5092226;28;20023;-75
2021/12/25 10:02:52;;;;;;;;;;;2.40;99.90;;;;;;5099865;28;20629;-76
2021/12/25 10:05:30;;;;;;;;;;;2.50;99.90;;;;;;5095636;28;19923;-75
2021/12/25 10:08:20;;;;;;;;;;;2.40;99.90;;;;;;5116797;28;19919;-75
2021/12/25 10:10:54;;;;;;;;;;;2.40;99.90;;;;;;5089846;27;20019;-75
2021/12/25 10:13:21;;;;;;;;;;;2.40;99.90;;;;;;5104924;28;19926;-75
2021/12/25 10:16:08;;;;;;;;;;;2.40;99.90;;;;;;5102229;28;20002;-75
2021/12/25 10:18:35;;;;;;;;;;;2.40;99.90;;;;;;5098090;28;19934;-76
2021/12/25 10:21:20;;;;;;;;;;;2.50;99.90;;;;;;5108014;27;19928;-75
2021/12/25 10:24:02;;;;;;;;;;;2.40;99.90;;;;;;5120504;27;19923;-76
2021/12/25 10:26:28;;;;;;;;;;;2.30;99.90;;;;;;5098760;28;20460;-75
2021/12/25 10:28:55;;;;;;;;;;;2.30;99.90;;;;;;5100194;28;20438;-75
2021/12/25 10:31:29;;;;;;;;;;;2.20;99.90;;;;;;5106170;28;19958;-76
2021/12/25 10:33:59;;;;;;;;;;;2.20;99.90;;;;;;5104781;27;19975;-75
2021/12/25 10:36:25;;;;;;;;;;;2.10;99.90;;;;;;5102597;28;19920;-75
2021/12/25 10:39:04;;;;;;;;;;;2.00;99.90;;;;;;5098877;27;19925;-75
2021/12/25 10:41:34;;;;;;;;;;;2.00;99.90;;;;;;5097735;28;20315;-74
2021/12/25 10:44:37;;;;;;;;;;;1.90;99.90;;;;;;5100541;28;19963;-75
2021/12/25 10:47:20;;;;;;;;;;;1.90;99.90;;;;;;5039346;28;20376;-75
2021/12/25 10:49:48;;;;;;;;;;;1.90;99.90;;;;;;5052018;28;19921;-75
2021/12/25 10:52:22;;;;;;;;;;;1.90;99.90;;;;;;5050552;28;19920;-75
2021/12/25 10:55:13;;;;;;;;;;;1.90;99.90;;;;;;5053469;28;19955;-76
2021/12/25 10:57:45;;;;;;;;;;;1.90;99.90;;;;;;5072810;28;20406;-75
2021/12/25 11:00:24;;;;;;;;;;;1.90;99.90;;;;;;5065185;28;20351;-76
2021/12/25 11:02:51;;;;;;;;;;;1.80;99.90;;;;;;5071735;28;20026;-76
2021/12/25 11:05:23;;;;;;;;;;;1.70;99.90;;;;;;5056570;28;19920;-76
2021/12/25 11:08:08;;;;;;;;;;;1.70;99.90;;;;;;5055954;28;19973;-77
2021/12/25 11:10:47;;;;;;;;;;;1.50;99.90;;;;;;5050179;28;19941;-77
2021/12/25 11:13:19;;;;;;;;;;;1.50;99.90;;;;;;5061247;28;20409;-77
2021/12/25 11:15:47;;;;;;;;;;;1.50;99.90;;;;;;5067488;28;19930;-76
2021/12/25 11:18:15;;;;;;;;;;;1.50;99.90;;;;;;5072090;28;19921;-77
2021/12/25 11:20:43;;;;;;;;;;;1.40;99.90;;;;;;5069860;28;19938;-76
2021/12/25 11:23:16;;;;;;;;;;;1.40;99.90;;;;;;5100424;28;20014;-76
2021/12/25 11:25:43;;;;;;;;;;;1.40;99.90;;;;;;5103440;28;20378;-77
2021/12/25 11:28:12;;;;;;;;;;;1.40;99.90;;;;;;5102502;28;19959;-77
2021/12/25 11:30:41;;;;;;;;;;;1.40;99.90;;;;;;5092405;28;19920;-77
2021/12/25 11:33:08;;;;;;;;;;;1.40;99.90;;;;;;5106272;28;20366;-77
2021/12/25 11:35:36;;;;;;;;;;;1.40;99.90;;;;;;5111035;28;19920;-77
2021/12/25 11:38:04;;;;;;;;;;;1.30;99.90;;;;;;5127415;27;19943;-78
2021/12/25 11:40:33;;;;;;;;;;;1.30;99.90;;;;;;5108057;28;19920;-77
2021/12/25 11:43:02;;;;;;;;;;;1.30;99.90;;;;;;5107533;28;19995;-77
2021/12/25 11:45:36;;;;;;;;;;;1.30;99.90;;;;;;5094653;28;20378;-76
2021/12/25 11:48:15;;;;;;;;;;;1.30;99.90;;;;;;5103016;27;21187;-77
2021/12/25 11:50:43;;;;;;;;;;;1.30;99.90;;;;;;5104322;28;19927;-77
2021/12/25 11:53:26;;;;;;;;;;;1.30;99.90;;;;;;5094726;28;19920;-77
2021/12/25 11:58:42;;;;;;;;;;;1.10;99.90;;;;;;5097671;28;19977;-77
2021/12/25 12:01:19;;;;;;;;;;;1.00;99.90;;;;;;5111367;27;19927;-77
2021/12/25 12:03:54;;;;;;;;;;;1.00;99.90;;;;;;5093870;28;20374;-77
2021/12/25 12:06:43;;;;;;;;;;;1.00;99.90;;;;;;5090045;28;20206;-77
2021/12/25 12:09:12;;;;;;;;;;;1.00;99.90;;;;;;5101742;28;19995;-77
2021/12/25 12:11:41;;;;;;;;;;;1.00;99.90;;;;;;5099044;27;19965;-77
2021/12/25 12:14:11;;;;;;;;;;;1.10;99.90;;;;;;5096365;28;19971;-78
2021/12/25 12:16:39;;;;;;;;;;;1.00;99.90;;;;;;5094825;28;19930;-77
2021/12/25 12:19:26;;;;;;;;;;;0.90;99.90;;;;;;5095404;28;20461;-78
2021/12/25 12:21:52;;;;;;;;;;;0.90;99.90;;;;;;5093901;28;19920;-78
2021/12/25 12:24:43;;;;;;;;;;;0.90;99.90;;;;;;5112106;27;19919;-77
2021/12/25 12:27:11;;;;;;;;;;;0.90;99.90;;;;;;5099442;27;19950;-77
2021/12/25 12:29:38;;;;;;;;;;;0.90;99.90;;;;;;5102828;28;19958;-77
2021/12/25 12:32:05;;;;;;;;;;;0.90;99.90;;;;;;5108374;27;19965;-77
2021/12/25 12:34:33;;;;;;;;;;;0.80;99.90;;;;;;5106358;28;19932;-77
2021/12/25 12:37:15;;;;;;;;;;;0.80;99.90;;;;;;5098105;27;20037;-76
2021/12/25 12:39:56;;;;;;;;;;;0.80;99.90;;;;;;5113692;27;19926;-77
2021/12/25 12:42:50;;;;;;;;;;;0.80;99.90;;;;;;5099223;27;19934;-77
2021/12/25 12:45:19;;;;;;;;;;;0.80;99.90;;;;;;5093265;28;19926;-78
2021/12/25 12:48:04;;;;;;;;;;;0.80;99.90;;;;;;5092295;28;19927;-78
2021/12/25 12:50:36;;;;;;;;;;;0.80;99.90;;;;;;5092737;28;19927;-77
2021/12/25 12:53:06;;;;;;;;;;;0.80;99.90;;;;;;5099420;28;20070;-78
2021/12/25 12:55:34;;;;;;;;;;;0.80;99.90;;;;;;5094666;28;19924;-78
2021/12/25 12:58:06;;;;;;;;;;;0.80;99.90;;;;;;5100470;28;20025;-77
2021/12/25 13:00:34;;;;;;;;;;;0.80;99.90;;;;;;5095649;28;19966;-78
2021/12/25 13:03:01;;;;;;;;;;;0.70;99.90;;;;;;5098450;28;20011;-78
2021/12/25 13:05:33;;;;;;;;;;;0.70;99.90;;;;;;5100958;28;19933;-77
2021/12/25 13:08:08;;;;;;;;;;;0.60;99.90;;;;;;5103935;27;19927;-78
2021/12/25 13:10:50;;;;;;;;;;;0.60;99.90;;;;;;5103422;28;19919;-77
2021/12/25 13:13:16;;;;;;;;;;;0.50;99.90;;;;;;5113607;27;20015;-77
2021/12/25 13:15:44;;;;;;;;;;;0.50;99.90;;;;;;5100213;28;19971;-77
2021/12/25 13:18:12;;;;;;;;;;;0.40;99.90;;;;;;5098870;28;19992;-78
2021/12/25 13:20:44;;;;;;;;;;;0.40;99.90;;;;;;5104102;28;19934;-78
2021/12/25 13:23:18;;;;;;;;;;;0.40;99.90;;;;;;5099496;28;19930;-79
2021/12/25 13:25:46;;;;;;;;;;;0.40;99.90;;;;;;5096455;28;19920;-78
2021/12/25 13:28:13;;;;;;;;;;;0.40;99.90;;;;;;5100704;28;19927;-77
2021/12/25 13:30:42;;;;;;;;;;;0.40;99.90;;;;;;5102675;27;20344;-77
2021/12/25 13:33:13;;;;;;;;;;;0.30;99.90;;;;;;5095737;28;19923;-77
2021/12/25 13:35:40;;;;;;;;;;;0.40;99.90;;;;;;5096639;28;19920;-76
2021/12/25 13:38:11;;;;;;;;;;;0.40;99.90;;;;;;5098118;28;19971;-76
2021/12/25 13:40:45;;;;;;;;;;;0.40;99.90;;;;;;5100517;28;19934;-76
2021/12/25 13:43:13;;;;;;;;;;;0.40;99.90;;;;;;5104788;28;19976;-77
2021/12/25 13:45:40;;;;;;;;;;;0.40;99.90;;;;;;5107939;28;19984;-79
2021/12/25 13:48:08;;;;;;;;;;;0.40;99.90;;;;;;5103000;28;20014;-78
2021/12/25 13:50:35;;;;;;;;;;;0.40;99.90;;;;;;5099112;28;19924;-78
2021/12/25 13:53:11;;;;;;;;;;;0.40;99.90;;;;;;5109858;28;19926;-78
2021/12/25 13:55:40;;;;;;;;;;;0.30;99.90;;;;;;5107209;28;19924;-79
2021/12/25 13:58:09;;;;;;;;;;;0.20;99.90;;;;;;5106497;28;20722;-78
2021/12/25 14:00:38;;;;;;;;;;;0.20;99.90;;;;;;5108994;27;19943;-79
2021/12/25 14:03:09;;;;;;;;;;;0.20;99.90;;;;;;5098659;27;19924;-77
2021/12/25 14:05:37;;;;;;;;;;;0.20;99.90;;;;;;5099685;28;20599;-78
2021/12/25 14:08:04;;;;;;;;;;;0.10;99.90;;;;;;5102887;27;19920;-78
2021/12/25 14:10:33;;;;;;;;;;;0.10;99.90;;;;;;5101157;28;20007;-78
2021/12/25 14:13:03;;;;;;;;;;;0.10;99.90;;;;;;5097328;28;20431;-78
2021/12/25 14:15:32;;;;;;;;;;;0.10;99.90;;;;;;5099885;28;19924;-78
2021/12/25 14:18:04;;;;;;;;;;;0.10;99.90;;;;;;5100392;28;21875;-78
2021/12/25 14:20:32;;;;;;;;;;;0.10;99.90;;;;;;5095627;28;19955;-78
2021/12/25 14:23:06;;;;;;;;;;;0.00;99.90;;;;;;5096332;28;20313;-78
2021/12/25 14:25:40;;;;;;;;;;;0.00;99.90;;;;;;5099197;28;19924;-78
2021/12/25 14:28:09;;;;;;;;;;;0.00;99.90;;;;;;5104957;28;19994;-78
2021/12/25 14:30:41;;;;;;;;;;;0.00;99.90;;;;;;5106148;28;20010;-78
2021/12/25 14:33:15;;;;;;;;;;;0.00;99.90;;;;;;5098906;28;19988;-78
2021/12/25 14:35:42;;;;;;;;;;;0.00;99.90;;;;;;5105325;28;19926;-78
2021/12/25 14:38:22;;;;;;;;;;;0.00;99.90;;;;;;5113357;27;19965;-78
2021/12/25 14:40:50;;;;;;;;;;;-0.10;99.90;;;;;;5102014;28;19923;-77
2021/12/25 14:43:30;;;;;;;;;;;-0.10;99.90;;;;;;5105719;28;19923;-78
2021/12/25 14:45:58;;;;;;;;;;;-0.10;99.90;;;;;;5112412;27;19931;-78
2021/12/25 14:48:26;;;;;;;;;;;-0.10;99.90;;;;;;5099230;28;19955;-78
2021/12/25 14:50:55;;;;;;;;;;;-0.20;99.90;;;;;;5110831;28;19919;-78
2021/12/25 14:53:21;;;;;;;;;;;-0.20;99.90;;;;;;5095633;28;20023;-78
2021/12/25 14:55:50;;;;;;;;;;;-0.30;99.90;;;;;;5097133;28;19974;-78
2021/12/25 14:58:16;;;;;;;;;;;-0.30;99.90;;;;;;5102587;28;19924;-78
2021/12/25 15:00:45;;;;;;;;;;;-0.30;99.90;;;;;;5102012;28;19920;-79
2021/12/25 15:03:15;;;;;;;;;;;-0.40;99.90;;;;;;5098449;28;20378;-78
2021/12/25 15:05:43;;;;;;;;;;;-0.40;99.90;;;;;;5098610;28;19928;-78
2021/12/25 15:08:21;;;;;;;;;;;-0.40;99.90;;;;;;5099943;27;19924;-79
2021/12/25 15:10:48;;;;;;;;;;;-0.40;99.90;;;;;;5101452;27;19967;-78
2021/12/25 15:13:18;;;;;;;;;;;-0.40;99.90;;;;;;5096971;28;19924;-79
2021/12/25 15:15:53;;;;;;;;;;;-0.50;99.90;;;;;;5101845;28;20382;-79
2021/12/25 15:18:24;;;;;;;;;;;-0.50;99.90;;;;;;5109206;28;20002;-79
2021/12/25 15:21:06;;;;;;;;;;;-0.40;99.90;;;;;;5099305;28;20593;-79
2021/12/25 15:23:33;;;;;;;;;;;-0.50;99.90;;;;;;5103284;28;19927;-79
2021/12/25 15:26:11;;;;;;;;;;;-0.40;99.90;;;;;;5093809;28;20015;-79
2021/12/25 15:28:43;;;;;;;;;;;-0.40;99.90;;;;;;5092377;28;19930;-79
2021/12/25 15:31:20;;;;;;;;;;;-0.40;99.90;;;;;;5094645;28;19920;-79
2021/12/25 15:34:07;;;;;;;;;;;-0.40;99.90;;;;;;5105905;28;19927;-79
2021/12/25 15:36:37;;;;;;;;;;;-0.40;99.90;;;;;;5099041;28;19920;-79
2021/12/25 15:39:22;;;;;;;;;;;-0.50;99.90;;;;;;5101195;27;19985;-79
2021/12/25 15:41:50;;;;;;;;;;;-0.40;99.90;;;;;;5106699;27;20034;-79
2021/12/25 15:44:22;;;;;;;;;;;-0.40;99.90;;;;;;5109330;27;19924;-79
2021/12/25 15:46:56;;;;;;;;;;;-0.40;99.90;;;;;;5111134;27;19924;-79
2021/12/25 15:49:23;;;;;;;;;;;-0.40;99.90;;;;;;5108541;27;19951;-79
2021/12/25 15:51:55;;;;;;;;;;;-0.40;99.90;;;;;;5106347;27;19924;-79
2021/12/25 15:54:22;;;;;;;;;;;-0.40;99.90;;;;;;5105766;28;19990;-79
2021/12/25 15:56:55;;;;;;;;;;;-0.40;99.90;;;;;;5097045;28;20012;-79
2021/12/25 15:59:23;;;;;;;;;;;-0.40;99.90;;;;;;5113116;28;20417;-79
2021/12/25 16:01:49;;;;;;;;;;;-0.40;99.90;;;;;;5104326;28;19924;-78
2021/12/25 16:04:16;;;;;;;;;;;-0.40;99.90;;;;;;5093284;28;19920;-79